sensor_id;sensor_type;location;lat;lon;timestamp;pressure;altitude;pressure_sealevel;temperature;humidity
71344;BME280;59146;43.850;25.948;2023-07-31T04:50:42;100476.84;;;22.13;93.48
71344;BME280;59146;43.850;25.948;2023-07-31T04:53:07;100484.31;;;22.34;92.79
71344;BME280;59146;43.850;25.948;2023-07-31T04:55:32;100487.47;;;22.45;91.80
71344;BME280;59146;43.850;25.948;2023-07-31T04:57:58;100487.94;;;22.65;90.68
71344;BME280;59146;43.850;25.948;2023-07-31T05:00:24;100481.28;;;22.69;90.21
71344;BME280;59146;43.850;25.948;2023-07-31T05:02:50;100534.44;;;23.01;90.76
71344;BME280;59146;43.850;25.948;2023-07-31T05:05:15;100528.47;;;22.99;90.48
71344;BME280;59146;43.850;25.948;2023-07-31T05:07:40;100486.63;;;22.61;91.86
71344;BME280;59146;43.850;25.948;2023-07-31T05:10:06;100537.31;;;22.83;92.94
71344;BME280;59146;43.850;25.948;2023-07-31T05:12:31;100484.81;;;22.37;94.64
71344;BME280;59146;43.850;25.948;2023-07-31T05:14:57;100455.41;;;22.31;93.95
71344;BME280;59146;43.850;25.948;2023-07-31T05:17:22;100503.25;;;22.71;92.70
71344;BME280;59146;43.850;25.948;2023-07-31T05:19:48;100502.81;;;22.98;91.10
71344;BME280;59146;43.850;25.948;2023-07-31T05:22:13;100539.28;;;23.06;90.78
71344;BME280;59146;43.850;25.948;2023-07-31T05:24:38;100499.53;;;22.88;91.01
71344;BME280;59146;43.850;25.948;2023-07-31T05:27:04;100534.25;;;23.11;91.68
71344;BME280;59146;43.850;25.948;2023-07-31T05:29:30;100489.78;;;22.72;91.41
71344;BME280;59146;43.850;25.948;2023-07-31T05:31:55;100527.16;;;22.95;92.32
71344;BME280;59146;43.850;25.948;2023-07-31T05:34:20;100507.00;;;22.92;90.98
71344;BME280;59146;43.850;25.948;2023-07-31T05:36:46;100540.03;;;23.22;89.93
71344;BME280;59146;43.850;25.948;2023-07-31T05:39:11;100493.97;;;23.06;88.18
71344;BME280;59146;43.850;25.948;2023-07-31T05:41:37;100538.44;;;23.44;87.26
71344;BME280;59146;43.850;25.948;2023-07-31T05:44:03;100538.69;;;23.34;86.83
71344;BME280;59146;43.850;25.948;2023-07-31T05:46:28;100533.41;;;23.18;88.21
71344;BME280;59146;43.850;25.948;2023-07-31T05:48:54;100554.84;;;23.25;87.23
71344;BME280;59146;43.850;25.948;2023-07-31T05:51:19;100558.34;;;23.33;87.18
71344;BME280;59146;43.850;25.948;2023-07-31T05:53:44;100510.81;;;22.98;87.39
71344;BME280;59146;43.850;25.948;2023-07-31T05:56:10;100556.44;;;23.50;85.90
71344;BME280;59146;43.850;25.948;2023-07-31T05:58:35;100558.53;;;23.62;85.76
71344;BME280;59146;43.850;25.948;2023-07-31T06:01:01;100516.34;;;23.66;83.67
71344;BME280;59146;43.850;25.948;2023-07-31T06:03:26;100553.41;;;23.84;84.66
71344;BME280;59146;43.850;25.948;2023-07-31T06:05:52;100560.59;;;24.28;83.45
71344;BME280;59146;43.850;25.948;2023-07-31T06:08:17;100523.50;;;23.96;83.29
71344;BME280;59146;43.850;25.948;2023-07-31T06:10:42;100529.38;;;24.14;82.35
71344;BME280;59146;43.850;25.948;2023-07-31T06:13:08;100564.38;;;24.57;81.15
71344;BME280;59146;43.850;25.948;2023-07-31T06:15:33;100520.06;;;24.10;81.93
71344;BME280;59146;43.850;25.948;2023-07-31T06:17:58;100578.75;;;24.33;83.05
71344;BME280;59146;43.850;25.948;2023-07-31T06:20:27;100524.38;;;24.11;81.81
71344;BME280;59146;43.850;25.948;2023-07-31T06:22:52;100511.59;;;23.99;82.24
71344;BME280;59146;43.850;25.948;2023-07-31T06:25:18;100567.66;;;24.21;82.41
71344;BME280;59146;43.850;25.948;2023-07-31T06:27:43;100583.97;;;24.04;84.18
71344;BME280;59146;43.850;25.948;2023-07-31T06:30:09;100546.34;;;23.68;84.71
71344;BME280;59146;43.850;25.948;2023-07-31T06:32:34;100586.19;;;23.61;87.27
71344;BME280;59146;43.850;25.948;2023-07-31T06:35:01;100573.00;;;23.37;89.20
71344;BME280;59146;43.850;25.948;2023-07-31T06:37:26;100553.44;;;22.98;91.46
71344;BME280;59146;43.850;25.948;2023-07-31T06:39:51;100581.50;;;23.17;92.45
71344;BME280;59146;43.850;25.948;2023-07-31T06:42:17;100463.38;;;22.31;92.92
71344;BME280;59146;43.850;25.948;2023-07-31T06:44:42;100546.69;;;22.71;94.96
71344;BME280;59146;43.850;25.948;2023-07-31T06:47:07;100587.91;;;22.83;93.97
71344;BME280;59146;43.850;25.948;2023-07-31T06:49:33;100549.34;;;22.47;92.73
71344;BME280;59146;43.850;25.948;2023-07-31T06:51:59;100544.66;;;22.41;93.63
71344;BME280;59146;43.850;25.948;2023-07-31T06:56:49;100597.09;;;22.73;89.12
71344;BME280;59146;43.850;25.948;2023-07-31T06:59:15;100583.47;;;22.68;90.97
71344;BME280;59146;43.850;25.948;2023-07-31T07:01:40;100547.00;;;22.52;90.76
71344;BME280;59146;43.850;25.948;2023-07-31T07:04:06;100580.09;;;22.82;91.22
71344;BME280;59146;43.850;25.948;2023-07-31T07:06:31;100570.28;;;22.82;90.12
71344;BME280;59146;43.850;25.948;2023-07-31T07:08:56;100527.22;;;22.55;89.46
71344;BME280;59146;43.850;25.948;2023-07-31T07:11:22;100588.75;;;22.92;86.40
71344;BME280;59146;43.850;25.948;2023-07-31T07:13:47;100542.19;;;22.72;85.23
71344;BME280;59146;43.850;25.948;2023-07-31T07:16:12;100541.84;;;22.75;85.14
71344;BME280;59146;43.850;25.948;2023-07-31T07:18:38;100518.25;;;22.64;84.89
71344;BME280;59146;43.850;25.948;2023-07-31T07:21:03;100598.03;;;23.12;84.96
71344;BME280;59146;43.850;25.948;2023-07-31T07:23:29;100563.72;;;23.09;84.19
71344;BME280;59146;43.850;25.948;2023-07-31T07:25:54;100593.81;;;23.34;82.74
71344;BME280;59146;43.850;25.948;2023-07-31T07:28:19;100594.25;;;23.53;82.66
71344;BME280;59146;43.850;25.948;2023-07-31T07:30:45;100551.66;;;23.37;81.38
71344;BME280;59146;43.850;25.948;2023-07-31T07:33:10;100560.88;;;23.57;81.55
71344;BME280;59146;43.850;25.948;2023-07-31T07:35:37;100612.56;;;23.87;81.38
71344;BME280;59146;43.850;25.948;2023-07-31T07:38:03;100570.09;;;23.47;81.15
71344;BME280;59146;43.850;25.948;2023-07-31T07:40:28;100576.06;;;23.57;82.05
71344;BME280;59146;43.850;25.948;2023-07-31T07:42:54;100604.78;;;23.78;82.53
71344;BME280;59146;43.850;25.948;2023-07-31T07:45:19;100566.75;;;23.53;83.22
71344;BME280;59146;43.850;25.948;2023-07-31T07:47:44;100609.06;;;23.87;83.00
71344;BME280;59146;43.850;25.948;2023-07-31T07:50:10;100574.75;;;23.84;79.92
71344;BME280;59146;43.850;25.948;2023-07-31T07:52:35;100600.78;;;24.12;79.90
71344;BME280;59146;43.850;25.948;2023-07-31T07:55:01;100573.44;;;24.10;81.73
71344;BME280;59146;43.850;25.948;2023-07-31T07:57:27;100610.44;;;24.36;78.92
71344;BME280;59146;43.850;25.948;2023-07-31T07:59:52;100621.66;;;24.31;79.91
71344;BME280;59146;43.850;25.948;2023-07-31T08:02:18;100593.34;;;24.22;78.72
71344;BME280;59146;43.850;25.948;2023-07-31T08:04:43;100595.78;;;24.32;75.10
71344;BME280;59146;43.850;25.948;2023-07-31T08:07:11;100631.44;;;24.39;76.29
71344;BME280;59146;43.850;25.948;2023-07-31T08:09:40;100584.13;;;24.02;78.39
71344;BME280;59146;43.850;25.948;2023-07-31T08:12:06;100645.09;;;24.44;77.60
71344;BME280;59146;43.850;25.948;2023-07-31T08:14:32;100640.34;;;24.31;79.11
71344;BME280;59146;43.850;25.948;2023-07-31T08:16:57;100593.53;;;23.90;75.42
71344;BME280;59146;43.850;25.948;2023-07-31T08:19:23;100646.03;;;24.28;75.85
71344;BME280;59146;43.850;25.948;2023-07-31T08:21:49;100609.50;;;24.06;75.65
71344;BME280;59146;43.850;25.948;2023-07-31T08:24:14;100602.16;;;24.00;75.39
71344;BME280;59146;43.850;25.948;2023-07-31T08:26:40;100628.63;;;24.10;76.84
71344;BME280;59146;43.850;25.948;2023-07-31T08:29:05;100614.47;;;24.01;77.27
71344;BME280;59146;43.850;25.948;2023-07-31T08:31:31;100627.59;;;24.19;75.70
71344;BME280;59146;43.850;25.948;2023-07-31T08:33:56;100616.06;;;24.18;75.55
71344;BME280;59146;43.850;25.948;2023-07-31T08:36:22;100577.00;;;24.25;75.79
71344;BME280;59146;43.850;25.948;2023-07-31T08:38:47;100619.72;;;24.63;74.93
71344;BME280;59146;43.850;25.948;2023-07-31T08:41:13;100628.31;;;24.73;74.75
71344;BME280;59146;43.850;25.948;2023-07-31T08:43:39;100606.66;;;24.68;73.69
71344;BME280;59146;43.850;25.948;2023-07-31T08:46:05;100632.16;;;24.93;74.11
71344;BME280;59146;43.850;25.948;2023-07-31T08:48:31;100632.84;;;25.24;72.79
71344;BME280;59146;43.850;25.948;2023-07-31T08:50:57;100635.28;;;25.48;70.61
71344;BME280;59146;43.850;25.948;2023-07-31T08:53:23;100583.44;;;25.20;68.33
71344;BME280;59146;43.850;25.948;2023-07-31T08:55:49;100636.75;;;25.65;69.11
71344;BME280;59146;43.850;25.948;2023-07-31T08:58:15;100593.25;;;25.42;68.85
71344;BME280;59146;43.850;25.948;2023-07-31T09:00:43;100600.72;;;25.47;69.26
71344;BME280;59146;43.850;25.948;2023-07-31T09:03:18;100611.50;;;25.53;70.64
71344;BME280;59146;43.850;25.948;2023-07-31T09:05:46;100604.91;;;25.56;69.15
71344;BME280;59146;43.850;25.948;2023-07-31T09:08:23;100653.78;;;25.79;70.00
71344;BME280;59146;43.850;25.948;2023-07-31T09:10:50;100635.63;;;25.60;69.44
71344;BME280;59146;43.850;25.948;2023-07-31T09:13:17;100641.69;;;25.68;68.69
71344;BME280;59146;43.850;25.948;2023-07-31T09:15:43;100599.75;;;25.54;69.64
71344;BME280;59146;43.850;25.948;2023-07-31T09:18:09;100613.56;;;25.72;68.88
71344;BME280;59146;43.850;25.948;2023-07-31T09:20:35;100605.75;;;25.56;68.98
71344;BME280;59146;43.850;25.948;2023-07-31T09:23:11;100664.06;;;26.11;68.17
71344;BME280;59146;43.850;25.948;2023-07-31T09:25:37;100620.22;;;25.97;69.11
71344;BME280;59146;43.850;25.948;2023-07-31T09:28:07;100631.25;;;26.24;67.17
71344;BME280;59146;43.850;25.948;2023-07-31T09:30:52;100570.94;;;26.49;63.90
71344;BME280;59146;43.850;25.948;2023-07-31T09:33:19;100585.59;;;26.74;63.40
71344;BME280;59146;43.850;25.948;2023-07-31T09:35:44;100591.50;;;26.91;63.75
71344;BME280;59146;43.850;25.948;2023-07-31T09:38:12;100595.28;;;27.03;62.86
71344;BME280;59146;43.850;25.948;2023-07-31T09:40:39;100550.72;;;26.46;63.74
71344;BME280;59146;43.850;25.948;2023-07-31T09:43:09;100515.38;;;26.30;62.62
71344;BME280;59146;43.850;25.948;2023-07-31T09:45:38;100615.94;;;27.09;62.71
71344;BME280;59146;43.850;25.948;2023-07-31T09:48:12;100604.56;;;27.07;62.28
71344;BME280;59146;43.850;25.948;2023-07-31T09:50:38;100625.53;;;27.24;61.14
71344;BME280;59146;43.850;25.948;2023-07-31T09:53:05;100626.75;;;27.22;61.23
71344;BME280;59146;43.850;25.948;2023-07-31T09:55:32;100624.81;;;26.82;63.41
71344;BME280;59146;43.850;25.948;2023-07-31T09:57:58;100595.53;;;26.59;62.88
71344;BME280;59146;43.850;25.948;2023-07-31T10:00:24;100591.72;;;26.47;63.24
71344;BME280;59146;43.850;25.948;2023-07-31T10:02:52;100626.91;;;26.65;63.34
71344;BME280;59146;43.850;25.948;2023-07-31T10:05:19;100650.66;;;26.89;63.81
71344;BME280;59146;43.850;25.948;2023-07-31T10:07:53;100636.00;;;26.85;62.40
71344;BME280;59146;43.850;25.948;2023-07-31T10:10:21;100558.31;;;26.43;62.51
71344;BME280;59146;43.850;25.948;2023-07-31T10:12:48;100591.44;;;26.63;62.82
71344;BME280;59146;43.850;25.948;2023-07-31T10:15:15;100587.56;;;26.65;62.32
71344;BME280;59146;43.850;25.948;2023-07-31T10:17:41;100628.69;;;27.07;62.29
71344;BME280;59146;43.850;25.948;2023-07-31T10:20:07;100624.69;;;27.51;60.72
71344;BME280;59146;43.850;25.948;2023-07-31T10:22:33;100639.00;;;27.72;60.05
71344;BME280;59146;43.850;25.948;2023-07-31T10:24:59;100630.50;;;27.62;60.43
71344;BME280;59146;43.850;25.948;2023-07-31T10:27:25;100616.50;;;27.04;61.74
71344;BME280;59146;43.850;25.948;2023-07-31T10:29:54;100631.34;;;26.72;64.20
71344;BME280;59146;43.850;25.948;2023-07-31T10:32:20;100597.31;;;26.73;63.73
71344;BME280;59146;43.850;25.948;2023-07-31T10:34:47;100632.31;;;26.93;63.80
71344;BME280;59146;43.850;25.948;2023-07-31T10:37:28;100571.00;;;26.77;63.25
71344;BME280;59146;43.850;25.948;2023-07-31T10:40:03;100597.56;;;26.78;63.76
71344;BME280;59146;43.850;25.948;2023-07-31T10:44:58;100622.75;;;26.84;63.63
71344;BME280;59146;43.850;25.948;2023-07-31T10:47:24;100599.88;;;26.60;64.71
71344;BME280;59146;43.850;25.948;2023-07-31T10:49:50;100614.03;;;26.75;65.27
71344;BME280;59146;43.850;25.948;2023-07-31T10:52:20;100622.66;;;26.98;63.99
71344;BME280;59146;43.850;25.948;2023-07-31T10:55:30;100613.63;;;27.33;63.15
71344;BME280;59146;43.850;25.948;2023-07-31T10:58:06;100600.75;;;27.57;61.96
71344;BME280;59146;43.850;25.948;2023-07-31T11:00:32;100556.72;;;27.38;61.44
71344;BME280;59146;43.850;25.948;2023-07-31T11:03:08;100587.28;;;27.43;63.35
71344;BME280;59146;43.850;25.948;2023-07-31T11:05:59;100601.22;;;27.32;62.99
71344;BME280;59146;43.850;25.948;2023-07-31T11:08:28;100595.22;;;26.96;63.18
71344;BME280;59146;43.850;25.948;2023-07-31T11:13:29;100593.91;;;26.64;63.50
71344;BME280;59146;43.850;25.948;2023-07-31T11:15:54;100546.22;;;26.47;62.70
71344;BME280;59146;43.850;25.948;2023-07-31T11:18:20;100544.94;;;26.70;62.35
71344;BME280;59146;43.850;25.948;2023-07-31T11:20:45;100603.66;;;27.27;61.90
71344;BME280;59146;43.850;25.948;2023-07-31T11:23:11;100476.03;;;26.64;60.74
71344;BME280;59146;43.850;25.948;2023-07-31T11:25:38;100588.09;;;27.37;61.34
71344;BME280;59146;43.850;25.948;2023-07-31T11:28:09;100600.50;;;27.45;60.77
71344;BME280;59146;43.850;25.948;2023-07-31T11:30:35;100581.44;;;27.33;62.44
71344;BME280;59146;43.850;25.948;2023-07-31T11:33:02;100546.03;;;26.76;62.46
71344;BME280;59146;43.850;25.948;2023-07-31T11:35:34;100588.16;;;27.16;62.84
71344;BME280;59146;43.850;25.948;2023-07-31T11:38:01;100519.91;;;26.85;62.52
71344;BME280;59146;43.850;25.948;2023-07-31T11:40:27;100544.25;;;27.24;62.11
71344;BME280;59146;43.850;25.948;2023-07-31T11:42:58;100561.47;;;27.42;61.02
71344;BME280;59146;43.850;25.948;2023-07-31T11:45:29;100559.25;;;27.52;61.05
71344;BME280;59146;43.850;25.948;2023-07-31T11:47:56;100560.09;;;27.60;61.32
71344;BME280;59146;43.850;25.948;2023-07-31T11:50:23;100578.50;;;27.63;59.34
71344;BME280;59146;43.850;25.948;2023-07-31T11:52:53;100571.28;;;27.70;60.70
71344;BME280;59146;43.850;25.948;2023-07-31T11:55:20;100554.78;;;27.73;60.01
71344;BME280;59146;43.850;25.948;2023-07-31T11:57:46;100529.97;;;27.58;58.39
71344;BME280;59146;43.850;25.948;2023-07-31T12:00:12;100491.56;;;27.44;59.10
71344;BME280;59146;43.850;25.948;2023-07-31T12:02:39;100520.69;;;27.53;59.06
71344;BME280;59146;43.850;25.948;2023-07-31T12:05:10;100528.94;;;27.52;59.49
71344;BME280;59146;43.850;25.948;2023-07-31T12:07:52;100553.34;;;27.29;61.30
71344;BME280;59146;43.850;25.948;2023-07-31T12:10:44;100570.75;;;27.40;60.58
71344;BME280;59146;43.850;25.948;2023-07-31T12:13:12;100578.06;;;27.18;61.83
71344;BME280;59146;43.850;25.948;2023-07-31T12:15:45;100527.38;;;26.89;62.21
71344;BME280;59146;43.850;25.948;2023-07-31T12:18:12;100565.44;;;27.12;61.73
71344;BME280;59146;43.850;25.948;2023-07-31T12:20:48;100506.59;;;27.04;61.05
71344;BME280;59146;43.850;25.948;2023-07-31T12:23:19;100505.03;;;27.16;60.64
71344;BME280;59146;43.850;25.948;2023-07-31T12:26:03;100515.97;;;27.62;58.74
71344;BME280;59146;43.850;25.948;2023-07-31T12:28:30;100557.50;;;27.92;57.85
71344;BME280;59146;43.850;25.948;2023-07-31T12:30:59;100554.06;;;28.05;57.48
71344;BME280;59146;43.850;25.948;2023-07-31T12:33:31;100550.72;;;27.90;57.84
71344;BME280;59146;43.850;25.948;2023-07-31T12:35:57;100506.66;;;27.58;56.99
71344;BME280;59146;43.850;25.948;2023-07-31T12:38:23;100562.75;;;28.00;56.22
71344;BME280;59146;43.850;25.948;2023-07-31T12:40:48;100539.91;;;27.64;56.42
71344;BME280;59146;43.850;25.948;2023-07-31T12:43:14;100569.59;;;27.56;57.24
71344;BME280;59146;43.850;25.948;2023-07-31T12:45:39;100574.50;;;27.45;57.15
71344;BME280;59146;43.850;25.948;2023-07-31T12:48:04;100566.22;;;27.40;58.53
71344;BME280;59146;43.850;25.948;2023-07-31T12:50:30;100564.97;;;27.36;58.57
71344;BME280;59146;43.850;25.948;2023-07-31T12:52:56;100554.13;;;27.23;58.11
71344;BME280;59146;43.850;25.948;2023-07-31T12:55:22;100549.75;;;27.09;57.79
71344;BME280;59146;43.850;25.948;2023-07-31T12:57:48;100563.59;;;26.79;58.08
71344;BME280;59146;43.850;25.948;2023-07-31T13:00:14;100522.72;;;26.49;58.72
71344;BME280;59146;43.850;25.948;2023-07-31T13:02:40;100509.94;;;26.72;57.98
71344;BME280;59146;43.850;25.948;2023-07-31T13:05:05;100539.88;;;27.16;57.17
71344;BME280;59146;43.850;25.948;2023-07-31T13:07:31;100421.53;;;26.44;57.10
71344;BME280;59146;43.850;25.948;2023-07-31T13:09:56;100532.59;;;27.44;55.53
71344;BME280;59146;43.850;25.948;2023-07-31T13:12:22;100491.84;;;27.21;55.94
71344;BME280;59146;43.850;25.948;2023-07-31T13:14:47;100471.34;;;27.48;54.09
71344;BME280;59146;43.850;25.948;2023-07-31T13:17:13;100488.53;;;27.73;52.91
71344;BME280;59146;43.850;25.948;2023-07-31T13:19:38;100504.44;;;27.75;52.67
71344;BME280;59146;43.850;25.948;2023-07-31T13:22:03;100530.22;;;27.76;52.47
71344;BME280;59146;43.850;25.948;2023-07-31T13:24:29;100529.03;;;27.91;52.03
71344;BME280;59146;43.850;25.948;2023-07-31T13:26:55;100532.19;;;28.08;51.66
71344;BME280;59146;43.850;25.948;2023-07-31T13:29:24;100521.59;;;27.87;51.07
71344;BME280;59146;43.850;25.948;2023-07-31T13:31:49;100470.91;;;27.44;51.82
71344;BME280;59146;43.850;25.948;2023-07-31T13:34:15;100533.72;;;27.76;52.29
71344;BME280;59146;43.850;25.948;2023-07-31T13:36:40;100478.41;;;27.82;51.33
71344;BME280;59146;43.850;25.948;2023-07-31T13:39:06;100535.91;;;28.00;51.17
71344;BME280;59146;43.850;25.948;2023-07-31T13:41:32;100480.88;;;27.64;51.05
71344;BME280;59146;43.850;25.948;2023-07-31T13:43:57;100515.59;;;27.91;51.30
71344;BME280;59146;43.850;25.948;2023-07-31T13:46:23;100536.31;;;28.04;51.32
71344;BME280;59146;43.850;25.948;2023-07-31T13:48:48;100551.91;;;27.81;51.79
71344;BME280;59146;43.850;25.948;2023-07-31T13:51:14;100408.19;;;26.85;52.13
71344;BME280;59146;43.850;25.948;2023-07-31T13:53:39;100529.59;;;27.61;52.55
71344;BME280;59146;43.850;25.948;2023-07-31T13:56:05;100516.31;;;27.52;52.07
71344;BME280;59146;43.850;25.948;2023-07-31T13:58:31;100492.69;;;27.28;52.63
71344;BME280;59146;43.850;25.948;2023-07-31T14:00:56;100542.81;;;27.69;52.87
71344;BME280;59146;43.850;25.948;2023-07-31T14:03:21;100469.59;;;27.34;52.08
71344;BME280;59146;43.850;25.948;2023-07-31T14:05:47;100420.53;;;26.80;51.87
71344;BME280;59146;43.850;25.948;2023-07-31T14:08:12;100539.03;;;27.57;51.80
71344;BME280;59146;43.850;25.948;2023-07-31T14:10:38;100527.16;;;27.85;51.66
71344;BME280;59146;43.850;25.948;2023-07-31T14:13:03;100521.66;;;28.13;51.13
71344;BME280;59146;43.850;25.948;2023-07-31T14:15:28;100454.28;;;27.75;50.47
71344;BME280;59146;43.850;25.948;2023-07-31T14:17:54;100487.56;;;28.20;50.01
71344;BME280;59146;43.850;25.948;2023-07-31T14:20:19;100487.56;;;28.33;49.93
71344;BME280;59146;43.850;25.948;2023-07-31T14:22:44;100452.47;;;28.21;49.06
71344;BME280;59146;43.850;25.948;2023-07-31T14:25:10;100459.47;;;28.16;49.75
71344;BME280;59146;43.850;25.948;2023-07-31T14:27:36;100513.59;;;28.26;51.49
71344;BME280;59146;43.850;25.948;2023-07-31T14:30:02;100455.44;;;27.46;51.66
71344;BME280;59146;43.850;25.948;2023-07-31T14:32:27;100523.41;;;27.67;51.65
71344;BME280;59146;43.850;25.948;2023-07-31T14:34:53;100525.47;;;27.65;53.03
71344;BME280;59146;43.850;25.948;2023-07-31T14:37:19;100499.38;;;27.39;51.98
71344;BME280;59146;43.850;25.948;2023-07-31T14:39:45;100507.25;;;27.53;52.17
71344;BME280;59146;43.850;25.948;2023-07-31T14:42:10;100425.81;;;27.07;51.44
71344;BME280;59146;43.850;25.948;2023-07-31T14:44:36;100458.06;;;27.33;50.68
71344;BME280;59146;43.850;25.948;2023-07-31T14:47:01;100507.31;;;27.67;50.10
71344;BME280;59146;43.850;25.948;2023-07-31T14:49:26;100497.75;;;27.51;50.87
71344;BME280;59146;43.850;25.948;2023-07-31T14:51:55;100484.13;;;27.52;50.33
71344;BME280;59146;43.850;25.948;2023-07-31T14:54:20;100420.16;;;26.89;51.28
71344;BME280;59146;43.850;25.948;2023-07-31T14:56:45;100503.81;;;27.25;51.65
71344;BME280;59146;43.850;25.948;2023-07-31T14:59:11;100461.00;;;26.91;53.47
71344;BME280;59146;43.850;25.948;2023-07-31T15:01:37;100506.28;;;27.20;51.44
71344;BME280;59146;43.850;25.948;2023-07-31T15:04:03;100443.03;;;26.85;51.79
71344;BME280;59146;43.850;25.948;2023-07-31T15:06:28;100470.75;;;27.05;51.66
71344;BME280;59146;43.850;25.948;2023-07-31T15:08:54;100506.31;;;27.27;51.88
71344;BME280;59146;43.850;25.948;2023-07-31T15:11:19;100500.75;;;27.28;51.52
71344;BME280;59146;43.850;25.948;2023-07-31T15:13:45;100461.69;;;27.06;51.44
71344;BME280;59146;43.850;25.948;2023-07-31T15:16:10;100442.25;;;26.91;52.09
71344;BME280;59146;43.850;25.948;2023-07-31T15:18:36;100454.88;;;27.04;51.68
71344;BME280;59146;43.850;25.948;2023-07-31T15:21:01;100351.50;;;26.41;51.33
71344;BME280;59146;43.850;25.948;2023-07-31T15:23:27;100429.16;;;26.75;52.05
71344;BME280;59146;43.850;25.948;2023-07-31T15:25:53;100478.88;;;26.84;52.72
71344;BME280;59146;43.850;25.948;2023-07-31T15:28:18;100478.78;;;26.71;53.72
71344;BME280;59146;43.850;25.948;2023-07-31T15:30:44;100424.34;;;26.30;54.49
71344;BME280;59146;43.850;25.948;2023-07-31T15:33:10;100466.78;;;26.67;54.07
71344;BME280;59146;43.850;25.948;2023-07-31T15:35:35;100425.53;;;26.55;53.71
71344;BME280;59146;43.850;25.948;2023-07-31T15:38:01;100440.00;;;26.67;53.18
71344;BME280;59146;43.850;25.948;2023-07-31T15:40:26;100423.06;;;26.53;53.93
71344;BME280;59146;43.850;25.948;2023-07-31T15:42:51;100470.19;;;26.75;54.18
71344;BME280;59146;43.850;25.948;2023-07-31T15:45:17;100458.44;;;26.77;54.69
71344;BME280;59146;43.850;25.948;2023-07-31T15:47:42;100471.78;;;26.70;54.71
71344;BME280;59146;43.850;25.948;2023-07-31T15:50:08;100482.94;;;26.73;55.00
71344;BME280;59146;43.850;25.948;2023-07-31T15:52:33;100477.13;;;26.70;56.33
71344;BME280;59146;43.850;25.948;2023-07-31T15:54:59;100425.06;;;26.45;57.93
71344;BME280;59146;43.850;25.948;2023-07-31T15:57:24;100498.00;;;26.74;58.97
71344;BME280;59146;43.850;25.948;2023-07-31T15:59:50;100504.75;;;26.70;60.13
71344;BME280;59146;43.850;25.948;2023-07-31T16:02:15;100497.06;;;26.61;60.82
71344;BME280;59146;43.850;25.948;2023-07-31T16:04:40;100498.09;;;26.60;60.54
71344;BME280;59146;43.850;25.948;2023-07-31T16:07:06;100487.28;;;26.47;61.18
71344;BME280;59146;43.850;25.948;2023-07-31T16:09:32;100491.75;;;26.40;62.12
71344;BME280;59146;43.850;25.948;2023-07-31T16:11:57;100454.50;;;26.17;61.69
71344;BME280;59146;43.850;25.948;2023-07-31T16:14:22;100459.72;;;26.04;62.09
71344;BME280;59146;43.850;25.948;2023-07-31T16:16:48;100511.63;;;26.24;62.66
71344;BME280;59146;43.850;25.948;2023-07-31T16:19:13;100512.56;;;26.17;63.50
71344;BME280;59146;43.850;25.948;2023-07-31T16:21:39;100507.09;;;26.04;63.85
71344;BME280;59146;43.850;25.948;2023-07-31T16:24:04;100479.94;;;25.85;63.39
71344;BME280;59146;43.850;25.948;2023-07-31T16:26:30;100479.56;;;25.67;63.50
71344;BME280;59146;43.850;25.948;2023-07-31T16:28:56;100528.66;;;25.81;64.19
71344;BME280;59146;43.850;25.948;2023-07-31T16:31:21;100495.59;;;25.67;63.16
71344;BME280;59146;43.850;25.948;2023-07-31T16:33:47;100519.69;;;25.67;62.60
71344;BME280;59146;43.850;25.948;2023-07-31T16:36:12;100496.63;;;25.66;62.97
71344;BME280;59146;43.850;25.948;2023-07-31T16:38:38;100491.59;;;25.78;62.75
71344;BME280;59146;43.850;25.948;2023-07-31T16:41:05;100472.94;;;25.63;62.22
71344;BME280;59146;43.850;25.948;2023-07-31T16:43:30;100525.06;;;25.88;62.33
71344;BME280;59146;43.850;25.948;2023-07-31T16:45:56;100539.91;;;25.91;61.85
71344;BME280;59146;43.850;25.948;2023-07-31T16:48:21;100512.09;;;25.71;61.24
71344;BME280;59146;43.850;25.948;2023-07-31T16:50:47;100469.41;;;25.42;61.49
71344;BME280;59146;43.850;25.948;2023-07-31T16:53:12;100546.69;;;25.93;61.58
71344;BME280;59146;43.850;25.948;2023-07-31T16:55:38;100517.03;;;25.88;60.49
71344;BME280;59146;43.850;25.948;2023-07-31T16:58:03;100479.38;;;25.69;60.21
71344;BME280;59146;43.850;25.948;2023-07-31T17:00:29;100475.78;;;25.62;58.79
71344;BME280;59146;43.850;25.948;2023-07-31T17:02:55;100474.06;;;25.54;59.05
71344;BME280;59146;43.850;25.948;2023-07-31T17:05:20;100487.63;;;25.53;58.43
71344;BME280;59146;43.850;25.948;2023-07-31T17:07:45;100440.13;;;25.19;59.03
71344;BME280;59146;43.850;25.948;2023-07-31T17:10:11;100491.50;;;25.50;58.27
71344;BME280;59146;43.850;25.948;2023-07-31T17:12:36;100519.16;;;25.57;58.63
71344;BME280;59146;43.850;25.948;2023-07-31T17:15:02;100505.72;;;25.51;58.18
71344;BME280;59146;43.850;25.948;2023-07-31T17:17:27;100503.38;;;25.62;58.11
71344;BME280;59146;43.850;25.948;2023-07-31T17:19:53;100495.47;;;25.54;57.74
71344;BME280;59146;43.850;25.948;2023-07-31T17:22:18;100496.28;;;25.55;57.86
71344;BME280;59146;43.850;25.948;2023-07-31T17:24:44;100546.13;;;25.77;57.58
71344;BME280;59146;43.850;25.948;2023-07-31T17:27:09;100548.03;;;25.83;57.66
71344;BME280;59146;43.850;25.948;2023-07-31T17:29:35;100532.84;;;25.69;57.86
71344;BME280;59146;43.850;25.948;2023-07-31T17:32:00;100506.09;;;25.48;57.92
71344;BME280;59146;43.850;25.948;2023-07-31T17:34:25;100557.00;;;25.75;57.72